createdAt,value
2023-03-06T00:01:03.651Z,87.09
2023-03-06T00:03:56.236Z,86.99
2023-03-06T00:06:47.319Z,86.93
2023-03-06T00:09:39.616Z,86.95
2023-03-06T00:12:24.573Z,86.80
2023-03-06T00:15:15.521Z,86.67
2023-03-06T00:18:04.166Z,86.72
2023-03-06T00:20:56.434Z,86.87
2023-03-06T00:23:42.177Z,87.02
2023-03-06T00:26:17.369Z,86.79
2023-03-06T00:29:00.832Z,86.79
2023-03-06T00:31:51.588Z,86.64
2023-03-06T00:34:37.932Z,86.53
2023-03-06T00:37:15.115Z,86.59
2023-03-06T00:40:11.294Z,86.57
2023-03-06T00:43:03.603Z,86.51
2023-03-06T00:45:50.100Z,86.31
2023-03-06T00:48:42.257Z,86.51
2023-03-06T00:51:34.587Z,86.48
2023-03-06T00:54:19.481Z,86.47
2023-03-06T00:57:03.285Z,86.23
2023-03-06T00:59:54.040Z,85.93
2023-03-06T01:02:37.044Z,85.89
2023-03-06T01:05:27.827Z,86.03
2023-03-06T01:08:20.192Z,86.18
2023-03-06T01:11:12.578Z,85.86
2023-03-06T01:13:53.388Z,86.05
2023-03-06T01:16:36.014Z,86.17
2023-03-06T01:19:28.365Z,86.25
2023-03-06T01:22:05.412Z,85.93
2023-03-06T01:24:57.647Z,85.70
2023-03-06T01:27:50.013Z,85.97
2023-03-06T01:30:35.917Z,85.89
2023-03-06T01:33:28.220Z,86.21
2023-03-06T01:36:19.095Z,86.19
2023-03-06T01:39:05.107Z,86.35
2023-03-06T01:41:57.355Z,86.25
2023-03-06T01:45:04.322Z,85.50
2023-03-06T01:47:50.029Z,85.54
2023-03-06T01:50:42.651Z,85.56
2023-03-06T01:53:35.208Z,85.51
2023-03-06T01:56:28.011Z,85.72
2023-03-06T01:59:04.416Z,85.69
2023-03-06T02:01:42.707Z,85.74
2023-03-06T02:04:36.245Z,85.67
2023-03-06T02:07:23.842Z,85.68
2023-03-06T02:10:11.271Z,85.38
2023-03-06T02:13:03.867Z,85.50
2023-03-06T02:15:50.161Z,85.55
2023-03-06T02:18:31.492Z,85.48
2023-03-06T02:21:27.149Z,85.60
2023-03-06T02:24:15.778Z,85.39
2023-03-06T02:27:04.459Z,85.32
2023-03-06T02:29:41.516Z,85.33
2023-03-06T02:32:34.088Z,85.39
2023-03-06T02:35:26.215Z,85.12
2023-03-06T02:38:17.201Z,85.40
2023-03-06T02:41:10.777Z,85.61
2023-03-06T02:44:03.242Z,85.49
2023-03-06T02:46:55.478Z,85.10
2023-03-06T02:49:47.814Z,85.32
2023-03-06T02:52:33.718Z,85.38
2023-03-06T02:55:22.570Z,85.90
2023-03-06T02:58:08.254Z,85.79
2023-03-06T03:00:45.536Z,85.85
2023-03-06T03:03:36.713Z,86.18
2023-03-06T03:06:29.073Z,86.61
2023-03-06T03:09:21.612Z,86.71
2023-03-06T03:12:14.471Z,86.52
2023-03-06T03:14:56.944Z,86.54
2023-03-06T03:17:29.674Z,86.41
2023-03-06T03:20:17.744Z,86.73
2023-03-06T03:23:10.052Z,86.61
2023-03-06T03:26:10.927Z,86.77
2023-03-06T03:29:04.747Z,86.79
2023-03-06T03:31:51.528Z,87.12
2023-03-06T03:34:42.255Z,87.57
2023-03-06T03:37:34.778Z,87.47
2023-03-06T03:40:25.404Z,87.48
2023-03-06T03:43:17.655Z,87.55
2023-03-06T03:46:03.763Z,87.70
2023-03-06T03:48:47.085Z,87.61
2023-03-06T03:51:39.509Z,87.37
2023-03-06T03:54:30.303Z,87.50
2023-03-06T03:57:22.205Z,87.51
2023-03-06T04:00:17.177Z,86.98
2023-03-06T04:03:05.817Z,86.98
2023-03-06T04:05:58.313Z,87.11
2023-03-06T04:08:49.133Z,87.02
2023-03-06T04:11:40.172Z,87.21
2023-03-06T04:14:25.167Z,87.24
2023-03-06T04:17:17.415Z,87.39
2023-03-06T04:19:54.912Z,87.21
2023-03-06T04:22:41.261Z,87.06
2023-03-06T04:25:33.200Z,87.14
2023-03-06T04:28:09.734Z,87.26
2023-03-06T04:31:02.183Z,87.26
2023-03-06T04:33:53.230Z,86.99
2023-03-06T04:36:36.775Z,87.15
2023-03-06T04:39:27.887Z,87.04
2023-03-06T04:42:04.828Z,86.84
2023-03-06T04:44:57.286Z,86.65
2023-03-06T04:47:40.795Z,86.73
2023-03-06T04:50:32.753Z,86.81
2023-03-06T04:53:21.400Z,87.13
2023-03-06T04:55:56.223Z,86.98
2023-03-06T04:58:42.549Z,87.01
2023-03-06T05:01:34.741Z,87.11
2023-03-06T05:04:18.024Z,87.18
2023-03-06T05:07:10.909Z,87.40
2023-03-06T05:10:03.260Z,87.58
2023-03-06T05:12:55.728Z,87.63
2023-03-06T05:15:46.543Z,87.45
2023-03-06T05:18:39.135Z,87.51
2023-03-06T05:21:29.858Z,87.73
2023-03-06T05:24:22.236Z,87.88
2023-03-06T05:27:14.595Z,87.79
2023-03-06T05:30:12.584Z,88.00
2023-03-06T05:33:04.889Z,87.78
2023-03-06T05:35:50.944Z,88.09
2023-03-06T05:38:34.638Z,88.18
2023-03-06T05:41:27.007Z,88.37
2023-03-06T05:44:19.244Z,88.66
2023-03-06T05:47:12.138Z,88.83
2023-03-06T05:50:02.463Z,89.10
2023-03-06T05:52:40.808Z,89.20
2023-03-06T05:55:32.228Z,89.25
2023-03-06T05:58:29.266Z,89.51
2023-03-06T06:01:15.513Z,89.45
2023-03-06T06:03:52.824Z,89.30
2023-03-06T06:06:29.714Z,89.18
2023-03-06T06:09:22.434Z,88.96
2023-03-06T06:12:15.601Z,88.86
2023-03-06T06:14:51.387Z,88.53
2023-03-06T06:17:26.821Z,88.09
2023-03-06T06:20:12.569Z,87.93
2023-03-06T06:22:47.956Z,87.83
2023-03-06T06:25:40.415Z,87.55
2023-03-06T06:28:25.277Z,87.06
2023-03-06T06:31:14.744Z,87.19
2023-03-06T06:34:08.481Z,86.89
2023-03-06T06:37:00.880Z,86.81
2023-03-06T06:39:53.429Z,86.35
2023-03-06T06:42:47.271Z,86.18
2023-03-06T06:45:39.782Z,86.20
2023-03-06T06:48:19.440Z,86.03
2023-03-06T06:51:12.112Z,85.87
2023-03-06T06:54:04.782Z,85.66
2023-03-06T06:56:57.199Z,85.40
2023-03-06T06:59:48.131Z,85.45
2023-03-06T07:02:40.436Z,85.60
2023-03-06T07:05:32.959Z,85.97
2023-03-06T07:08:17.667Z,85.78
2023-03-06T07:11:12.487Z,85.43
2023-03-06T07:13:57.103Z,85.37
2023-03-06T07:16:49.544Z,84.96
2023-03-06T07:19:41.839Z,84.92
2023-03-06T07:22:25.488Z,84.59
2023-03-06T07:25:17.995Z,83.96
2023-03-06T07:28:08.756Z,83.66
2023-03-06T07:31:01.229Z,83.25
2023-03-06T07:33:53.362Z,83.20
2023-03-06T07:36:40.519Z,82.51
2023-03-06T07:39:32.911Z,82.23
2023-03-06T07:42:11.387Z,81.46
2023-03-06T07:44:50.920Z,80.48
2023-03-06T07:47:36.162Z,80.49
2023-03-06T07:50:28.738Z,80.34
2023-03-06T07:53:12.106Z,79.50
2023-03-06T07:55:57.764Z,79.43
2023-03-06T07:58:49.170Z,79.38
2023-03-06T08:01:42.034Z,79.20
2023-03-06T08:04:19.865Z,79.17
2023-03-06T08:07:10.596Z,78.51
2023-03-06T08:10:03.279Z,77.84
2023-03-06T08:12:37.765Z,77.43
2023-03-06T08:15:22.510Z,76.84
2023-03-06T08:18:14.906Z,76.86
2023-03-06T08:20:52.265Z,77.01
2023-03-06T08:23:45.102Z,76.86
2023-03-06T08:26:21.431Z,76.67
2023-03-06T08:29:04.257Z,76.54
2023-03-06T08:31:56.739Z,76.11
2023-03-06T08:34:47.533Z,75.83
2023-03-06T08:37:38.375Z,75.18
2023-03-06T08:40:31.179Z,75.02
2023-03-06T08:43:23.524Z,73.83
2023-03-06T08:46:16.006Z,74.09
2023-03-06T08:48:59.611Z,74.05
2023-03-06T08:51:53.074Z,73.26
2023-03-06T08:54:37.524Z,73.53
2023-03-06T08:57:20.771Z,74.02
2023-03-06T09:00:15.544Z,73.83
2023-03-06T09:03:08.139Z,72.77
2023-03-06T09:06:03.661Z,72.51
2023-03-06T09:08:55.420Z,72.41
2023-03-06T09:11:48.352Z,71.68
2023-03-06T09:14:23.673Z,71.35
2023-03-06T09:17:14.900Z,70.94
2023-03-06T09:20:10.604Z,70.59
2023-03-06T09:22:46.033Z,69.87
2023-03-06T09:25:38.652Z,70.06
2023-03-06T09:28:22.163Z,69.72
2023-03-06T09:30:59.466Z,69.05
2023-03-06T09:33:52.165Z,67.21
2023-03-06T09:36:49.311Z,65.55
2023-03-06T09:39:31.397Z,65.36
2023-03-06T09:42:03.696Z,65.75
2023-03-06T09:44:52.762Z,64.47
2023-03-06T09:47:50.438Z,63.58
2023-03-06T09:50:42.848Z,62.67
2023-03-06T09:53:50.827Z,62.58
2023-03-06T09:56:31.147Z,60.02
2023-03-06T09:59:18.726Z,59.26
2023-03-06T10:01:55.458Z,60.01
2023-03-06T10:04:41.626Z,60.03
2023-03-06T10:07:24.401Z,59.21
2023-03-06T10:10:01.010Z,59.11
2023-03-06T10:12:38.806Z,58.40
2023-03-06T10:15:36.180Z,58.87
2023-03-06T10:18:08.946Z,58.26
2023-03-06T10:20:54.674Z,58.29
2023-03-06T10:23:55.700Z,56.83
2023-03-06T10:26:44.663Z,55.60
2023-03-06T10:30:01.655Z,54.78
2023-03-06T10:32:50.337Z,52.30
2023-03-06T10:35:31.092Z,54.09
2023-03-06T10:38:19.517Z,55.65
2023-03-06T10:41:25.475Z,54.37
2023-03-06T10:44:26.835Z,55.25
2023-03-06T10:47:35.372Z,55.95
2023-03-06T10:50:28.990Z,54.96
2023-03-06T10:53:23.639Z,54.61
2023-03-06T10:56:07.353Z,53.62
2023-03-06T10:59:13.622Z,53.13
2023-03-06T11:01:52.748Z,54.11
2023-03-06T11:04:30.745Z,54.18
2023-03-06T11:07:19.405Z,54.52
2023-03-06T11:10:19.146Z,55.13
2023-03-06T11:13:06.289Z,55.39
2023-03-06T11:15:38.903Z,54.23
2023-03-06T11:18:36.005Z,54.41
2023-03-06T11:21:32.435Z,54.60
2023-03-06T11:24:16.745Z,54.82
2023-03-06T11:26:55.574Z,55.64
2023-03-06T11:29:44.762Z,55.04
2023-03-06T11:32:46.863Z,56.57
2023-03-06T11:35:24.839Z,56.23
2023-03-06T11:38:17.187Z,55.25
2023-03-06T11:41:04.495Z,55.59
2023-03-06T11:43:47.870Z,55.65
2023-03-06T11:46:45.271Z,55.94
2023-03-06T11:49:33.345Z,56.50
2023-03-06T11:52:28.663Z,55.53
2023-03-06T11:55:35.656Z,55.67
2023-03-06T11:58:54.816Z,55.78
2023-03-06T12:02:06.740Z,55.65
2023-03-06T12:05:10.277Z,55.41
2023-03-06T12:08:16.262Z,55.11
2023-03-06T12:14:15.659Z,55.32
2023-03-06T12:17:23.798Z,54.59
2023-03-06T12:20:41.528Z,54.96
2023-03-06T12:23:29.942Z,54.88
2023-03-06T12:26:38.210Z,55.45
2023-03-06T12:29:36.133Z,56.13
2023-03-06T12:32:30.185Z,55.24
2023-03-06T12:35:51.607Z,54.86
2023-03-06T12:39:04.572Z,54.67
2023-03-06T12:42:00.439Z,55.53
2023-03-06T12:45:05.989Z,55.59
2023-03-06T12:47:51.347Z,55.60
2023-03-06T12:50:38.383Z,56.34
2023-03-06T12:53:28.044Z,56.63
2023-03-06T12:56:04.972Z,56.83
2023-03-06T12:58:57.570Z,57.67
2023-03-06T13:02:02.717Z,57.71
2023-03-06T13:05:02.084Z,57.33
2023-03-06T13:08:01.354Z,57.63
2023-03-06T13:11:18.733Z,57.75
2023-03-06T13:13:51.242Z,56.93
2023-03-06T13:16:42.558Z,57.16
2023-03-06T13:19:27.531Z,57.56
2023-03-06T13:22:30.336Z,58.02
2023-03-06T13:25:48.022Z,58.02
2023-03-06T13:28:46.571Z,57.79
2023-03-06T13:32:15.986Z,57.51
2023-03-06T13:35:48.513Z,56.63
2023-03-06T13:39:00.263Z,55.53
2023-03-06T13:42:00.655Z,56.09
2023-03-06T13:44:54.520Z,56.65
2023-03-06T13:48:21.165Z,56.58
2023-03-06T13:51:25.140Z,57.06
2023-03-06T13:54:32.572Z,58.37
2023-03-06T13:57:32.300Z,59.33
2023-03-06T14:00:36.711Z,59.87
2023-03-06T14:04:07.683Z,60.47
2023-03-06T14:07:06.516Z,60.01
2023-03-06T14:09:53.851Z,59.58
2023-03-06T14:12:34.121Z,58.89
2023-03-06T14:15:31.661Z,59.45
2023-03-06T14:18:38.231Z,59.79
2023-03-06T14:21:31.243Z,60.23
2023-03-06T14:24:19.891Z,60.16
2023-03-06T14:27:02.160Z,60.09
2023-03-06T14:30:05.466Z,60.01
2023-03-06T14:32:38.971Z,60.24
2023-03-06T14:35:29.302Z,59.76
2023-03-06T14:38:16.284Z,59.53
2023-03-06T14:41:00.848Z,60.00
2023-03-06T14:43:53.425Z,59.99
2023-03-06T14:46:38.778Z,60.28
2023-03-06T14:49:29.797Z,60.36
2023-03-06T14:52:21.873Z,60.65
2023-03-06T14:55:18.134Z,61.33
2023-03-06T14:57:57.272Z,61.51
2023-03-06T15:00:45.397Z,61.60
2023-03-06T15:03:46.878Z,62.09
2023-03-06T15:06:25.499Z,62.72
2023-03-06T15:09:20.512Z,62.87
2023-03-06T15:12:01.856Z,62.67
2023-03-06T15:15:00.456Z,62.22
2023-03-06T15:17:44.860Z,62.80
2023-03-06T15:20:44.667Z,63.09
2023-03-06T15:23:43.323Z,63.35
2023-03-06T15:26:37.933Z,63.57
2023-03-06T15:29:24.342Z,63.69
2023-03-06T15:32:30.628Z,63.73
2023-03-06T15:35:33.894Z,63.70
2023-03-06T15:39:01.709Z,63.71
2023-03-06T15:41:41.881Z,63.78
2023-03-06T15:44:35.105Z,63.72
2023-03-06T15:47:20.401Z,63.89
2023-03-06T15:50:20.485Z,64.02
2023-03-06T15:53:13.163Z,64.26
2023-03-06T15:56:05.390Z,64.19
2023-03-06T15:58:43.351Z,64.17
2023-03-06T16:01:21.648Z,64.42
2023-03-06T16:04:17.093Z,64.54
2023-03-06T16:07:09.676Z,64.53
2023-03-06T16:09:53.570Z,64.56
2023-03-06T16:12:36.855Z,64.54
2023-03-06T16:15:25.385Z,64.72
2023-03-06T16:18:18.628Z,64.84
2023-03-06T16:21:11.042Z,64.89
2023-03-06T16:23:48.196Z,64.23
2023-03-06T16:26:41.887Z,63.96
2023-03-06T16:29:34.294Z,63.93
2023-03-06T16:32:28.758Z,64.12
2023-03-06T16:35:04.249Z,64.13
2023-03-06T16:38:00.006Z,64.45
2023-03-06T16:40:43.355Z,64.42
2023-03-06T16:43:36.060Z,64.72
2023-03-06T16:46:20.369Z,64.84
2023-03-06T16:49:12.684Z,64.89
2023-03-06T16:52:06.601Z,65.07
2023-03-06T16:54:59.855Z,65.09
2023-03-06T16:57:43.550Z,65.14
2023-03-06T17:00:31.166Z,65.14
2023-03-06T17:03:12.519Z,65.48
2023-03-06T17:06:05.573Z,65.52
2023-03-06T17:08:49.115Z,65.61
2023-03-06T17:11:34.160Z,65.81
2023-03-06T17:14:24.965Z,66.14
2023-03-06T17:17:02.054Z,66.37
2023-03-06T17:19:54.697Z,66.50
2023-03-06T17:22:47.158Z,66.57
2023-03-06T17:25:39.715Z,66.75
2023-03-06T17:28:32.115Z,67.04
2023-03-06T17:31:25.516Z,67.20
2023-03-06T17:34:03.445Z,67.31
2023-03-06T17:36:54.873Z,67.49
2023-03-06T17:39:47.326Z,67.81
2023-03-06T17:42:33.288Z,67.99
2023-03-06T17:45:18.574Z,68.20
2023-03-06T17:47:57.172Z,68.47
2023-03-06T17:50:29.277Z,68.64
2023-03-06T17:53:11.382Z,68.86
2023-03-06T17:55:54.842Z,68.97
2023-03-06T17:58:30.215Z,69.05
2023-03-06T18:01:19.092Z,69.14
2023-03-06T18:04:04.554Z,69.24
2023-03-06T18:06:58.397Z,69.30
2023-03-06T18:09:45.290Z,69.29
2023-03-06T18:12:37.679Z,69.43
2023-03-06T18:15:30.203Z,69.53
2023-03-06T18:18:22.705Z,69.75
2023-03-06T18:21:10.210Z,69.69
2023-03-06T18:24:02.629Z,69.73
2023-03-06T18:26:42.204Z,69.89
2023-03-06T18:29:28.336Z,70.01
2023-03-06T18:32:20.791Z,69.92
2023-03-06T18:35:09.481Z,70.02
2023-03-06T18:37:54.579Z,70.04
2023-03-06T18:40:29.977Z,70.12
2023-03-06T18:43:21.980Z,70.04
2023-03-06T18:46:14.935Z,69.97
2023-03-06T18:49:06.248Z,70.10
2023-03-06T18:51:43.406Z,70.09
2023-03-06T18:54:30.361Z,70.39
2023-03-06T18:57:11.547Z,70.49
2023-03-06T18:59:55.601Z,70.48
2023-03-06T19:02:48.182Z,70.47
2023-03-06T19:05:33.643Z,70.62
2023-03-06T19:08:09.781Z,70.47
2023-03-06T19:10:53.604Z,70.75
2023-03-06T19:13:37.283Z,70.92
2023-03-06T19:16:33.851Z,71.21
2023-03-06T19:19:20.722Z,71.37
2023-03-06T19:22:16.629Z,71.61
2023-03-06T19:25:03.893Z,71.60
2023-03-06T19:27:50.562Z,71.86
2023-03-06T19:30:37.010Z,72.01
2023-03-06T19:33:22.683Z,72.13
2023-03-06T19:36:12.279Z,72.20
2023-03-06T19:39:07.560Z,72.20
2023-03-06T19:42:00.335Z,72.23
2023-03-06T19:44:46.817Z,72.46
2023-03-06T19:47:39.452Z,72.57
2023-03-06T19:50:32.074Z,72.71
2023-03-06T19:53:24.665Z,72.83
2023-03-06T19:56:20.486Z,72.99
2023-03-06T19:59:13.467Z,73.11
2023-03-06T20:01:54.658Z,73.28
2023-03-06T20:06:40.673Z,73.46
2023-03-06T20:07:58.750Z,73.63
2023-03-06T20:10:51.036Z,73.68
2023-03-06T20:13:47.328Z,73.73
2023-03-06T20:16:23.010Z,73.92
2023-03-06T20:19:09.321Z,74.20
2023-03-06T20:21:55.913Z,74.37
2023-03-06T20:24:42.467Z,74.46
2023-03-06T20:27:35.074Z,74.58
2023-03-06T20:30:17.182Z,74.79
2023-03-06T20:33:09.750Z,75.01
2023-03-06T20:36:03.920Z,74.96
2023-03-06T20:38:50.785Z,75.10
2023-03-06T20:41:36.039Z,75.06
2023-03-06T20:44:19.884Z,75.06
2023-03-06T20:47:12.352Z,75.27
2023-03-06T20:49:49.237Z,75.32
2023-03-06T20:52:42.169Z,75.35
2023-03-06T20:55:27.754Z,75.40
2023-03-06T20:58:18.477Z,75.46
2023-03-06T21:01:09.759Z,75.45
2023-03-06T21:04:04.494Z,75.54
2023-03-06T21:06:57.830Z,75.64
2023-03-06T21:09:51.733Z,75.75
2023-03-06T21:12:33.146Z,76.02
2023-03-06T21:15:19.590Z,76.19
2023-03-06T21:18:13.199Z,76.11
2023-03-06T21:21:10.297Z,76.05
2023-03-06T21:24:03.686Z,76.02
2023-03-06T21:26:51.292Z,76.14
2023-03-06T21:29:45.507Z,76.11
2023-03-06T21:32:38.130Z,76.25
2023-03-06T21:35:24.400Z,76.20
2023-03-06T21:38:05.468Z,76.29
2023-03-06T21:40:57.875Z,76.33
2023-03-06T21:43:44.497Z,76.42
2023-03-06T21:46:30.938Z,76.42
2023-03-06T21:49:26.422Z,76.36
2023-03-06T21:52:12.596Z,76.64
2023-03-06T21:55:03.330Z,76.62
2023-03-06T21:57:52.469Z,76.58
2023-03-06T22:00:43.785Z,76.47
2023-03-06T22:03:18.368Z,76.54
2023-03-06T22:06:12.661Z,76.52
2023-03-06T22:09:05.350Z,76.54
2023-03-06T22:11:58.350Z,76.48
2023-03-06T22:14:50.577Z,76.53
2023-03-06T22:17:41.699Z,76.51
2023-03-06T22:20:34.159Z,76.65
2023-03-06T22:23:26.704Z,76.38
2023-03-06T22:26:17.535Z,76.43
2023-03-06T22:29:09.786Z,76.66
2023-03-06T22:32:02.167Z,76.68
2023-03-06T22:34:52.909Z,76.57
2023-03-06T22:37:27.204Z,76.54
2023-03-06T22:40:14.212Z,76.73
2023-03-06T22:42:57.394Z,76.52
2023-03-06T22:45:49.966Z,76.40
2023-03-06T22:48:40.971Z,76.60
2023-03-06T22:51:28.097Z,76.51
2023-03-06T22:54:20.804Z,76.91
2023-03-06T22:57:13.402Z,76.91
2023-03-06T22:59:58.692Z,76.94
2023-03-06T23:02:49.480Z,77.10
2023-03-06T23:05:44.619Z,77.16
2023-03-06T23:08:29.685Z,77.35
2023-03-06T23:11:00.201Z,77.26
2023-03-06T23:13:50.704Z,77.14
2023-03-06T23:16:41.805Z,77.29
2023-03-06T23:19:32.469Z,77.16
2023-03-06T23:22:23.208Z,77.45
2023-03-06T23:25:13.970Z,77.58
2023-03-06T23:28:05.573Z,77.48
2023-03-06T23:30:51.176Z,77.61
2023-03-06T23:33:26.153Z,77.56
2023-03-06T23:36:20.308Z,77.71
2023-03-06T23:39:14.336Z,77.88
2023-03-06T23:41:51.508Z,77.90
2023-03-06T23:44:32.310Z,78.14
2023-03-06T23:47:24.765Z,77.94
2023-03-06T23:50:09.567Z,77.91
2023-03-06T23:52:56.309Z,78.10
2023-03-06T23:55:43.253Z,78.08
2023-03-06T23:58:29.318Z,78.10
